createdAt,value
2018-12-07T00:02:20.008Z,12.57
2018-12-07T00:04:48.270Z,16.87
2018-12-07T00:07:21.744Z,16.07
2018-12-07T00:09:50.586Z,16.20
2018-12-07T00:12:24.709Z,17.00
2018-12-07T00:14:54.263Z,15.23
2018-12-07T00:17:23.105Z,13.90
2018-12-07T00:19:58.924Z,14.37
2018-12-07T00:22:28.034Z,16.47
2018-12-07T00:24:56.177Z,13.67
2018-12-07T00:27:24.655Z,13.67
2018-12-07T00:29:52.832Z,13.67
2018-12-07T00:32:21.599Z,15.43
2018-12-07T00:34:50.265Z,17.33
2018-12-07T00:37:18.687Z,17.53
2018-12-07T00:39:53.011Z,17.73
2018-12-07T00:42:21.939Z,17.20
2018-12-07T00:44:50.262Z,20.83
2018-12-07T00:47:19.051Z,16.07
2018-12-07T00:49:47.634Z,16.57
2018-12-07T00:52:16.101Z,22.37
2018-12-07T00:54:44.789Z,21.63
2018-12-07T01:03:26.452Z,14.50
2018-12-07T01:05:54.853Z,14.23
2018-12-07T01:08:23.583Z,17.70
2018-12-07T01:10:52.206Z,16.90
2018-12-07T01:13:20.443Z,15.23
2018-12-07T01:15:50.249Z,13.20
2018-12-07T01:18:18.663Z,14.20
2018-12-07T01:20:47.899Z,12.30
2018-12-07T01:23:17.104Z,14.67
2018-12-07T01:25:46.925Z,15.43
2018-12-07T01:28:15.365Z,10.90
2018-12-07T01:30:43.709Z,10.20
2018-12-07T01:33:12.098Z,12.47
2018-12-07T01:35:40.462Z,11.50
2018-12-07T01:38:08.676Z,11.37
2018-12-07T01:40:37.017Z,11.00
2018-12-07T01:43:05.338Z,10.43
2018-12-07T01:45:33.602Z,12.20
2018-12-07T01:48:01.840Z,11.83
2018-12-07T01:50:30.301Z,11.30
2018-12-07T01:52:58.803Z,9.97
2018-12-07T01:55:27.227Z,11.30
2018-12-07T01:57:55.644Z,11.73
2018-12-07T02:00:23.842Z,12.30
2018-12-07T02:02:52.686Z,13.07
2018-12-07T02:05:20.860Z,15.13
2018-12-07T02:07:49.484Z,9.77
2018-12-07T02:10:18.664Z,11.43
2018-12-07T02:12:47.122Z,12.47
2018-12-07T02:15:16.130Z,9.03
2018-12-07T02:17:44.423Z,10.57
2018-12-07T02:20:12.892Z,7.60
2018-12-07T02:22:41.581Z,8.67
2018-12-07T02:25:09.767Z,9.07
2018-12-07T02:27:43.338Z,8.87
2018-12-07T02:30:12.338Z,10.20
2018-12-07T02:32:41.252Z,8.63
2018-12-07T02:35:10.218Z,13.00
2018-12-07T02:37:38.633Z,10.37
2018-12-07T02:40:07.515Z,13.97
2018-12-07T02:42:35.893Z,11.03
2018-12-07T02:45:04.906Z,10.50
2018-12-07T02:47:33.298Z,12.93
2018-12-07T02:50:01.485Z,8.53
2018-12-07T02:52:29.623Z,9.50
2018-12-07T02:54:58.471Z,8.90
2018-12-07T02:57:26.925Z,7.33
2018-12-07T02:59:55.336Z,9.10
2018-12-07T03:02:23.661Z,8.47
2018-12-07T03:04:52.741Z,8.90
2018-12-07T03:07:22.897Z,7.17
2018-12-07T03:09:54.319Z,7.30
2018-12-07T03:12:22.900Z,7.23
2018-12-07T03:14:51.133Z,6.07
2018-12-07T03:17:19.385Z,5.43
2018-12-07T03:19:48.506Z,6.03
2018-12-07T03:22:16.658Z,5.70
2018-12-07T03:24:44.909Z,6.47
2018-12-07T03:27:13.251Z,5.83
2018-12-07T03:29:53.120Z,5.00
2018-12-07T03:32:21.935Z,3.83
2018-12-07T03:34:50.166Z,7.63
2018-12-07T03:37:18.467Z,4.67
2018-12-07T03:39:52.789Z,3.50
2018-12-07T03:42:21.011Z,4.77
2018-12-07T03:44:49.284Z,5.43
2018-12-07T03:47:17.477Z,6.73
2018-12-07T03:49:45.894Z,5.50
2018-12-07T03:52:14.235Z,4.87
2018-12-07T03:54:42.514Z,3.93
2018-12-07T03:57:10.968Z,5.00
2018-12-07T03:59:51.287Z,4.77
2018-12-07T04:02:19.670Z,6.53
2018-12-07T04:04:47.842Z,10.40
2018-12-07T04:07:17.185Z,12.50
2018-12-07T04:09:45.549Z,12.63
2018-12-07T04:12:13.699Z,13.30
2018-12-07T04:14:41.833Z,13.37
2018-12-07T04:17:10.067Z,17.27
2018-12-07T04:19:38.399Z,13.33
2018-12-07T04:22:06.667Z,14.50
2018-12-07T04:24:34.949Z,13.47
2018-12-07T04:27:03.325Z,9.77
2018-12-07T04:29:37.109Z,12.00
2018-12-07T04:32:05.577Z,10.50
2018-12-07T04:34:33.824Z,11.70
2018-12-07T04:37:02.187Z,11.87
2018-12-07T04:39:31.839Z,10.43
2018-12-07T04:42:00.496Z,9.47
2018-12-07T04:44:29.357Z,12.80
2018-12-07T04:46:57.838Z,11.80
2018-12-07T04:49:26.529Z,10.73
2018-12-07T04:51:54.847Z,10.80
2018-12-07T04:54:23.194Z,9.33
2018-12-07T04:56:51.372Z,8.17
2018-12-07T04:59:19.942Z,9.23
2018-12-07T05:04:36.161Z,10.10
2018-12-07T05:07:05.517Z,10.00
2018-12-07T05:09:34.429Z,8.37
2018-12-07T05:12:02.760Z,9.43
2018-12-07T05:14:31.343Z,7.53
2018-12-07T05:16:59.999Z,10.63
2018-12-07T05:19:32.778Z,10.80
2018-12-07T05:22:01.864Z,8.57
2018-12-07T05:24:30.598Z,8.70
2018-12-07T05:26:59.632Z,9.70
2018-12-07T05:29:28.651Z,10.43
2018-12-07T05:31:57.512Z,9.13
2018-12-07T05:34:26.038Z,11.00
2018-12-07T05:36:54.554Z,11.90
2018-12-07T05:39:23.093Z,11.87
2018-12-07T05:41:51.657Z,12.17
2018-12-07T05:44:20.446Z,10.57
2018-12-07T05:46:49.155Z,11.43
2018-12-07T05:49:17.441Z,9.90
2018-12-07T05:51:45.788Z,12.37
2018-12-07T05:54:14.915Z,11.43
2018-12-07T05:56:43.146Z,12.20
2018-12-07T05:59:11.872Z,9.93
2018-12-07T06:01:40.695Z,11.50
2018-12-07T06:04:09.210Z,12.43
2018-12-07T06:06:37.414Z,10.03
2018-12-07T06:09:07.296Z,12.80
2018-12-07T06:11:35.438Z,11.27
2018-12-07T06:14:03.976Z,15.70
2018-12-07T06:16:32.590Z,13.10
2018-12-07T06:19:02.537Z,14.13
2018-12-07T06:21:31.232Z,14.70
2018-12-07T06:24:00.244Z,12.43
2018-12-07T06:26:28.916Z,15.73
2018-12-07T06:28:57.096Z,12.57
2018-12-07T06:31:25.519Z,13.50
2018-12-07T06:33:54.290Z,12.33
2018-12-07T06:36:24.900Z,12.60
2018-12-07T06:38:58.525Z,11.53
2018-12-07T06:43:39.374Z,13.57
2018-12-07T06:49:11.099Z,14.27
2018-12-07T06:51:42.153Z,13.30
2018-12-07T07:07:24.093Z,11.33
2018-12-07T07:12:40.106Z,15.57
2018-12-07T07:15:18.116Z,15.60
2018-12-07T07:17:52.430Z,19.27
2018-12-07T07:33:44.327Z,16.83
2018-12-07T07:39:11.603Z,17.87
2018-12-07T07:41:40.161Z,17.87
2018-12-07T07:44:08.313Z,16.97
2018-12-07T07:46:36.482Z,16.57
2018-12-07T07:49:04.818Z,15.50
2018-12-07T07:51:33.153Z,16.00
2018-12-07T07:54:01.387Z,17.67
2018-12-07T07:56:29.720Z,15.90
2018-12-07T08:01:54.658Z,15.37
2018-12-07T08:04:22.972Z,16.50
2018-12-07T08:06:52.468Z,14.93
2018-12-07T08:09:22.530Z,15.27
2018-12-07T08:11:51.465Z,15.00
2018-12-07T08:14:19.706Z,16.87
2018-12-07T08:16:48.168Z,19.70
2018-12-07T08:22:03.710Z,19.27
2018-12-07T08:24:33.013Z,18.50
2018-12-07T08:27:01.495Z,20.20
2018-12-07T08:35:22.539Z,22.90
2018-12-07T08:37:51.074Z,23.13
2018-12-07T08:43:08.564Z,22.70
2018-12-07T08:45:36.817Z,19.97
2018-12-07T08:48:05.093Z,19.47
2018-12-07T08:50:33.355Z,18.63
2018-12-07T08:53:01.997Z,21.90
2018-12-07T08:58:16.478Z,19.70
2018-12-07T09:00:51.545Z,18.27
2018-12-07T09:03:20.094Z,20.13
2018-12-07T09:05:50.519Z,17.83
2018-12-07T09:08:19.071Z,15.77
2018-12-07T09:13:43.988Z,14.67
2018-12-07T09:16:12.192Z,16.03
2018-12-07T09:18:41.176Z,17.77
2018-12-07T09:21:16.189Z,19.13
2018-12-07T09:23:49.570Z,17.30
2018-12-07T09:26:15.376Z,18.80
2018-12-07T09:28:43.917Z,19.87
2018-12-07T09:31:24.973Z,16.33
2018-12-07T09:33:54.456Z,17.87
2018-12-07T09:36:22.678Z,15.03
2018-12-07T09:41:46.423Z,13.07
2018-12-07T09:44:27.644Z,15.63
2018-12-07T09:46:56.222Z,12.70
2018-12-07T09:49:40.893Z,12.90
2018-12-07T09:52:09.405Z,12.17
2018-12-07T09:54:37.631Z,10.60
2018-12-07T09:57:06.753Z,9.07
2018-12-07T09:59:43.221Z,12.10
2018-12-07T10:02:11.703Z,10.23
2018-12-07T10:04:39.988Z,13.13
2018-12-07T10:07:09.364Z,11.57
2018-12-07T10:09:45.238Z,12.50
2018-12-07T10:12:16.090Z,11.47
2018-12-07T10:14:44.566Z,14.50
2018-12-07T10:17:12.791Z,10.43
2018-12-07T10:19:53.991Z,10.37
2018-12-07T10:22:22.523Z,13.60
2018-12-07T10:24:51.002Z,11.73
2018-12-07T10:27:24.893Z,13.93
2018-12-07T10:32:48.369Z,13.17
2018-12-07T10:41:03.602Z,14.47
2018-12-07T10:43:34.009Z,14.53
2018-12-07T11:24:07.578Z,16.07
2018-12-07T11:26:43.317Z,15.47
2018-12-07T11:29:16.428Z,17.93
2018-12-07T11:31:50.332Z,12.93
2018-12-07T11:34:25.670Z,13.27
2018-12-07T11:36:53.965Z,16.87
2018-12-07T11:39:28.653Z,13.13
2018-12-07T11:41:57.541Z,12.37
2018-12-07T11:44:26.869Z,12.83
2018-12-07T11:47:00.518Z,9.53
2018-12-07T11:49:39.460Z,10.07
2018-12-07T11:52:08.037Z,11.73
2018-12-07T11:54:45.858Z,7.50
2018-12-07T12:00:08.473Z,8.20
2018-12-07T12:02:37.589Z,10.30
2018-12-07T12:05:06.076Z,14.27
2018-12-07T12:07:36.579Z,10.37
2018-12-07T12:10:22.735Z,9.23
2018-12-07T12:15:41.408Z,9.00
2018-12-07T12:18:10.633Z,7.70
2018-12-07T12:23:37.798Z,7.77
2018-12-07T12:26:08.020Z,9.77
2018-12-07T12:28:38.934Z,7.33
2018-12-07T12:31:07.958Z,4.93
2018-12-07T12:33:37.612Z,4.60
2018-12-07T12:36:06.497Z,4.53
2018-12-07T12:38:36.444Z,7.53
2018-12-07T12:50:07.711Z,7.30
2018-12-07T12:52:37.012Z,5.27
2018-12-07T12:55:06.231Z,7.80
2018-12-07T12:57:37.584Z,5.57
2018-12-07T13:00:13.642Z,5.13
2018-12-07T13:11:45.790Z,5.93
2018-12-07T13:14:17.913Z,5.67
2018-12-07T13:16:49.241Z,6.97
2018-12-07T13:19:18.401Z,5.33
2018-12-07T13:21:51.882Z,5.37
2018-12-07T13:24:23.210Z,6.20
2018-12-07T13:27:03.577Z,7.73
2018-12-07T13:29:38.381Z,6.47
2018-12-07T13:32:13.256Z,9.23
2018-12-07T13:34:51.088Z,5.33
2018-12-07T13:37:26.195Z,7.07
2018-12-07T14:23:57.000Z,10.80
2018-12-07T14:32:38.322Z,8.90
2018-12-07T14:38:16.265Z,12.27
2018-12-07T14:46:54.081Z,9.27
2018-12-07T14:58:17.914Z,16.43
2018-12-07T15:03:55.385Z,22.50
2018-12-07T15:06:23.786Z,22.77
2018-12-07T15:08:52.543Z,24.30
2018-12-07T15:11:20.987Z,21.03
2018-12-07T15:13:49.664Z,19.57
2018-12-07T15:16:18.183Z,17.17
2018-12-07T15:18:52.831Z,27.80
2018-12-07T15:21:22.495Z,24.20
2018-12-07T15:23:50.974Z,24.57
2018-12-07T15:26:19.488Z,26.20
2018-12-07T15:28:48.102Z,14.13
2018-12-07T15:31:16.669Z,23.23
2018-12-07T15:33:48.419Z,28.27
2018-12-07T15:36:16.750Z,14.37
2018-12-07T15:38:46.087Z,13.83
2018-12-07T15:41:14.700Z,16.47
2018-12-07T15:46:50.793Z,12.83
2018-12-07T15:49:19.083Z,21.07
2018-12-07T15:51:47.305Z,20.17
2018-12-07T15:54:15.660Z,16.40
2018-12-07T15:56:44.508Z,15.17
2018-12-07T15:59:12.750Z,10.37
2018-12-07T16:01:40.985Z,17.87
2018-12-07T16:04:09.989Z,19.17
2018-12-07T16:06:38.270Z,15.70
2018-12-07T16:09:07.519Z,28.07
2018-12-07T16:11:35.865Z,14.80
2018-12-07T16:14:04.199Z,17.53
2018-12-07T16:16:32.597Z,21.33
2018-12-07T16:19:01.019Z,13.50
2018-12-07T16:21:29.423Z,20.00
2018-12-07T16:23:57.811Z,14.23
2018-12-07T16:26:26.084Z,14.77
2018-12-07T16:28:54.673Z,17.10
2018-12-07T16:31:22.919Z,26.97
2018-12-07T16:33:51.099Z,19.73
2018-12-07T16:36:19.499Z,19.83
2018-12-07T16:38:47.779Z,16.67
2018-12-07T16:41:16.253Z,12.40
2018-12-07T16:43:44.608Z,22.37
2018-12-07T16:46:13.027Z,17.43
2018-12-07T16:48:41.551Z,14.57
2018-12-07T16:51:09.982Z,11.07
2018-12-07T16:53:38.654Z,11.10
2018-12-07T16:56:07.097Z,13.47
2018-12-07T16:58:35.444Z,14.27
2018-12-07T17:01:03.718Z,8.60
2018-12-07T17:03:32.103Z,10.27
2018-12-07T17:06:00.220Z,11.37
2018-12-07T17:08:28.412Z,8.83
2018-12-07T17:10:56.622Z,13.13
2018-12-07T17:13:24.808Z,12.97
2018-12-07T17:15:53.233Z,12.87
2018-12-07T17:18:21.998Z,15.93
2018-12-07T17:20:50.422Z,13.67
2018-12-07T17:23:18.732Z,15.70
2018-12-07T17:25:47.087Z,13.57
2018-12-07T17:28:15.516Z,16.13
2018-12-07T17:30:44.038Z,15.03
2018-12-07T17:33:13.488Z,9.33
2018-12-07T17:35:42.525Z,10.50
2018-12-07T17:38:11.015Z,15.57
2018-12-07T17:40:39.493Z,13.60
2018-12-07T17:43:07.863Z,14.60
2018-12-07T17:45:36.042Z,12.83
2018-12-07T17:48:04.328Z,9.83
2018-12-07T17:50:32.580Z,19.13
2018-12-07T17:53:00.862Z,18.60
2018-12-07T17:55:29.149Z,16.23
2018-12-07T17:57:57.645Z,14.77
2018-12-07T18:00:25.987Z,16.03
2018-12-07T18:02:54.220Z,17.93
2018-12-07T18:05:22.426Z,25.70
2018-12-07T18:07:50.659Z,17.07
2018-12-07T18:10:18.762Z,22.37
2018-12-07T18:12:47.185Z,18.40
2018-12-07T18:15:27.276Z,15.00
2018-12-07T18:59:18.071Z,13.30
2018-12-07T19:01:48.156Z,13.90
2018-12-07T19:04:18.995Z,20.10
2018-12-07T19:06:52.927Z,17.63
2018-12-07T19:18:23.155Z,12.00
2018-12-07T19:23:49.380Z,14.87
2018-12-07T19:26:18.772Z,11.33
2018-12-07T19:28:52.168Z,15.33
2018-12-07T19:34:16.971Z,16.47
2018-12-07T19:36:47.791Z,17.57
2018-12-07T19:39:21.711Z,18.97
2018-12-07T20:25:55.296Z,15.33
2018-12-07T20:31:10.621Z,17.43
2018-12-07T20:33:39.013Z,15.90
2018-12-07T20:36:07.325Z,15.37
2018-12-07T20:38:35.881Z,12.37
2018-12-07T20:41:05.553Z,18.10
2018-12-07T20:43:34.114Z,7.70
2018-12-07T20:46:03.126Z,15.00
2018-12-07T20:48:31.543Z,16.50
2018-12-07T20:51:00.410Z,10.20
2018-12-07T20:53:29.089Z,11.23
2018-12-07T20:55:57.351Z,11.30
2018-12-07T20:58:26.417Z,11.80
2018-12-07T21:00:59.468Z,11.53
2018-12-07T21:04:36.013Z,14.40
2018-12-07T21:08:10.810Z,9.00
2018-12-07T21:10:57.226Z,11.33
2018-12-07T21:13:47.223Z,10.40
2018-12-07T21:20:19.283Z,6.80
2018-12-07T21:22:47.360Z,9.97
2018-12-07T21:25:15.838Z,14.23
2018-12-07T21:27:44.178Z,9.03
2018-12-07T21:31:21.634Z,12.83
2018-12-07T21:34:59.186Z,16.97
2018-12-07T21:37:27.517Z,13.27
2018-12-07T21:40:05.452Z,17.60
2018-12-07T21:42:33.720Z,11.73
2018-12-07T21:45:01.987Z,10.50
2018-12-07T21:47:44.023Z,11.17
2018-12-07T21:50:14.254Z,19.57
2018-12-07T21:52:43.006Z,14.47
2018-12-07T21:55:11.656Z,12.40
2018-12-07T21:57:39.888Z,10.27
2018-12-07T22:00:07.994Z,13.17
2018-12-07T22:02:36.366Z,11.27
2018-12-07T22:05:04.677Z,12.60
2018-12-07T22:07:33.309Z,13.47
2018-12-07T22:10:01.789Z,14.07
2018-12-07T22:12:30.321Z,12.20
2018-12-07T22:15:00.296Z,15.60
2018-12-07T22:20:59.146Z,13.37
2018-12-07T22:23:27.731Z,9.37
2018-12-07T22:25:55.986Z,18.13
2018-12-07T22:28:24.935Z,11.17
2018-12-07T22:30:53.887Z,16.63
2018-12-07T22:33:22.537Z,13.90
2018-12-07T22:35:51.978Z,10.83
2018-12-07T22:38:20.990Z,13.00
2018-12-07T22:40:50.162Z,9.37
2018-12-07T22:43:18.659Z,9.10
2018-12-07T22:45:46.887Z,9.07
2018-12-07T22:48:15.344Z,10.73
2018-12-07T22:50:43.688Z,13.77
2018-12-07T22:53:11.791Z,16.27
2018-12-07T22:55:40.447Z,10.03
2018-12-07T22:58:08.637Z,14.83
2018-12-07T23:00:38.762Z,12.60
2018-12-07T23:03:06.928Z,13.30
2018-12-07T23:05:35.438Z,12.20
2018-12-07T23:08:03.575Z,13.40
2018-12-07T23:10:31.666Z,11.93
2018-12-07T23:12:59.729Z,11.07
2018-12-07T23:15:27.798Z,15.63
2018-12-07T23:17:55.905Z,8.87
2018-12-07T23:20:24.222Z,11.37
2018-12-07T23:22:52.352Z,14.13
2018-12-07T23:25:20.449Z,10.80
2018-12-07T23:27:48.629Z,13.40
2018-12-07T23:30:16.851Z,14.93
2018-12-07T23:32:45.044Z,8.63
2018-12-07T23:35:13.151Z,14.83
2018-12-07T23:37:41.932Z,14.47
2018-12-07T23:40:10.063Z,10.90
2018-12-07T23:42:38.246Z,15.43
2018-12-07T23:45:06.465Z,9.97
2018-12-07T23:47:34.721Z,10.13
2018-12-07T23:50:02.917Z,12.17
2018-12-07T23:52:31.045Z,12.63
2018-12-07T23:54:59.155Z,13.97
2018-12-07T23:57:27.265Z,19.53
2018-12-07T23:59:55.438Z,9.93
